SESA/SNC METAR and TAF weather

Enter ICAO airport designator
Station Type Date Time Source
SESA METAR 2022/01/29 14:00 UTC NOAA

SESA 291400Z 12004KT 9999 VCSH SCT010TCU 25/22 Q1014 RMK A2995


Station Type Date Time Source
SESA Decoded METAR 2022/01/29 14:00 UTC NOAA

Salinas / General Ulpiano Paez, Ecuador (SESA) 02-12S 080-59W 8M
Jan 29, 2022 - 09:00 AM EST / 2022.01.29 1400 UTC
Wind: from the ESE (120 degrees) at 5 MPH (4 KT):0
Visibility: greater than 7 mile(s):0
Sky conditions: partly cloudy
Weather: showers in the vicinity; Towering cumulus clouds observed
Temperature: 77 F (25 C)
Dew Point: 71 F (22 C)
Relative Humidity: 83%
Pressure (altimeter): 29.94 in. Hg (1014 hPa)
ob: SESA 291400Z 12004KT 9999 VCSH SCT010TCU 25/22 Q1014 RMK A2995
cycle: 14

Station Type Date Time Source
SESA TAF UTC NOAA

Error!

Example: see airport list